This is the latest recevied weather packets stored in our database for station/object IW4EMA-3. If no packets are shown the sender has not sent any weather packets the latest 10 day(s).
| Time | Temp. | Humidity | Pressure | Rain* | Wind** | Luminosity | Snow |
|---|---|---|---|---|---|---|---|
| 1777055008 | 21.67° C | 47% | 1013.7 hPa | 0 mm | - | 0 W/m² | - |
| 1777053808 | 22.22° C | 44% | 1013.6 hPa | 0 mm | - | 5 W/m² | - |
| 1777052020 | 23.89° C | 35% | 1013.6 hPa | 0 mm | - | 20 W/m² | - |
| 1777050208 | 24.44° C | 41% | 1013.5 hPa | 0 mm | - | 31 W/m² | - |
| 1777049028 | 25° C | 37% | 1013.7 hPa | 0 mm | - | 38 W/m² | - |
| 1777048399 | 25.56° C | 39% | 1013.7 hPa | 0 mm | - | 66 W/m² | - |
| 1777044820 | 26.67° C | 32% | 1014.2 hPa | 0 mm | - | 207 W/m² | - |
| 1777041200 | 26.67° C | 34% | 1014.6 hPa | 0 mm | - | 353 W/m² | - |
| 1777040000 | 26.11° C | 32% | 1014.9 hPa | 0 mm | - | 403 W/m² | - |
| 1777039409 | 26.11° C | 33% | 1015 hPa | 0 mm | - | 425 W/m² | - |
| 1777034628 | 25° C | 37% | 1015.9 hPa | 0 mm | - | 576 W/m² | - |
| 1777032799 | 23.89° C | 43% | 1016.3 hPa | 0 mm | - | 612 W/m² | - |
| 1777024401 | 21.11° C | 54% | 1017.4 hPa | 0 mm | - | 610 W/m² | - |
| 1777018400 | 18.89° C | 52% | 1018.1 hPa | 0 mm | - | 447 W/m² | - |
| 1777014208 | 15° C | 55% | 1018.2 hPa | 0 mm | - | 278 W/m² | - |
| 1776991429 | 11.11° C | 67% | 1017.6 hPa | 0 mm | - | 0 W/m² | - |
| 1776980001 | 13.89° C | 57% | 1017.9 hPa | 0 mm | - | 0 W/m² | - |
| 1776976401 | 13.33° C | 66% | 1018 hPa | 0 mm | - | 0 W/m² | - |
| 1776975809 | 13.89° C | 64% | 1018 hPa | 0 mm | - | 0 W/m² | - |
| 1776972801 | 15° C | 57% | 1018.1 hPa | 0 mm | - | 0 W/m² | - |
| 1776971009 | 16.67° C | 51% | 1017.9 hPa | 0 mm | - | 0 W/m² | - |
| 1776969810 | 16.67° C | 50% | 1017.7 hPa | 0 mm | - | 0 W/m² | - |
| 1776968609 | 16.67° C | 50% | 1017.7 hPa | 0 mm | - | 0 W/m² | - |
| 1776968001 | 17.78° C | 49% | 1017.9 hPa | 0 mm | - | 2 W/m² | - |
* Rain latest hour (hover to see other rain measurements)
** Current wind speed in m/s (hover to see current wind gust speed)